Time;durP1;ratioP1;P1;durP2;ratioP2;P2;SDS_P1;SDS_P2;PMS_P1;PMS_P2;Temp;Humidity;BMP_temperature;BMP_pressure;BME280_temperature;BME280_humidity;BME280_pressure;Samples;Min_cycle;Max_cycle;Signal;HPM_P1;HPM_P2
2022/08/22 00:01:50;;;;;;;;;;;;;;;;;;5005870;28;19918;-57
2022/08/22 00:04:16;;;;;;;;;;;;;;;;;;5014187;28;19917;-56
2022/08/22 00:06:41;;;;;;;;;;;;;;;;;;5007938;28;19917;-58
2022/08/22 00:09:06;;;;;;;;;;;;;;;;;;5015693;28;19928;-61
2022/08/22 00:11:34;;;;;;;;;;;;;;;;;;5029834;28;19983;-56
2022/08/22 00:13:59;;;;;;;;;;;;;;;;;;5012756;28;19921;-55
2022/08/22 00:16:25;;;;;;;;;;;;;;;;;;5014196;28;19959;-57
2022/08/22 00:18:50;;;;;;;;;;;;;;;;;;5007242;28;19945;-57
2022/08/22 00:21:15;;;;;;;;;;;;;;;;;;5007846;28;20333;-56
2022/08/22 00:23:40;;;;;;;;;;;;;;;;;;5011527;28;20028;-55
2022/08/22 00:26:05;;;;;;;;;;;;;;;;;;5009087;28;19917;-57
2022/08/22 00:28:31;;;;;;;;;;;;;;;;;;5013189;28;19917;-56
2022/08/22 00:30:56;;;;;;;;;;;;;;;;;;5007019;28;19921;-55
2022/08/22 00:33:22;;;;;;;;;;;;;;;;;;5006558;28;19932;-56
2022/08/22 00:35:47;;;;;;;;;;;;;;;;;;5013357;28;19918;-56
2022/08/22 00:38:12;;;;;;;;;;;;;;;;;;5008080;28;19926;-55
2022/08/22 00:40:37;;;;;;;;;;;;;;;;;;5013221;28;19928;-58
2022/08/22 00:43:03;;;;;;;;;;;;;;;;;;5007590;28;19928;-58
2022/08/22 00:45:28;;;;;;;;;;;;;;;;;;5008153;28;20467;-56
2022/08/22 00:47:53;;;;;;;;;;;;;;;;;;5013357;28;20079;-55
2022/08/22 00:50:19;;;;;;;;;;;;;;;;;;5009101;28;19925;-56
2022/08/22 00:52:44;;;;;;;;;;;;;;;;;;5013368;28;19932;-57
2022/08/22 00:55:10;;;;;;;;;;;;;;;;;;5007606;28;20024;-55
2022/08/22 00:57:35;;;;;;;;;;;;;;;;;;5023107;28;20020;-57
2022/08/22 01:00:03;;;;;;;;;;;;;;;;;;5011672;28;19963;-57
2022/08/22 01:02:28;;;;;;;;;;;;;;;;;;5008393;28;20535;-58
2022/08/22 01:04:53;;;;;;;;;;;;;;;;;;5012608;28;20104;-59
2022/08/22 01:07:19;;;;;;;;;;;;;;;;;;5007410;28;20647;-57
2022/08/22 01:09:44;;;;;;;;;;;;;;;;;;5009048;28;19917;-57
2022/08/22 01:12:10;;;;;;;;;;;;;;;;;;5012936;28;19985;-58
2022/08/22 01:14:35;;;;;;;;;;;;;;;;;;5021378;28;19963;-57
2022/08/22 01:17:01;;;;;;;;;;;;;;;;;;5026615;28;19921;-58
2022/08/22 01:19:26;;;;;;;;;;;;;;;;;;5007414;28;20036;-57
2022/08/22 01:21:51;;;;;;;;;;;;;;;;;;5006239;28;20277;-55
2022/08/22 01:24:16;;;;;;;;;;;;;;;;;;5011655;28;20542;-56
2022/08/22 01:26:42;;;;;;;;;;;;;;;;;;5008353;28;20003;-56
2022/08/22 01:29:07;;;;;;;;;;;;;;;;;;5009307;28;19975;-58
2022/08/22 01:31:32;;;;;;;;;;;;;;;;;;5007508;28;19982;-53
2022/08/22 01:33:57;;;;;;;;;;;;;;;;;;5006336;28;19917;-57
2022/08/22 01:36:22;;;;;;;;;;;;;;;;;;5010664;28;19999;-57
2022/08/22 01:38:48;;;;;;;;;;;;;;;;;;5007845;28;20302;-54
2022/08/22 01:41:13;;;;;;;;;;;;;;;;;;5010140;28;19967;-57
2022/08/22 01:43:38;;;;;;;;;;;;;;;;;;5009752;28;20868;-58
2022/08/22 01:46:03;;;;;;;;;;;;;;;;;;5008209;28;19928;-54
2022/08/22 01:48:28;;;;;;;;;;;;;;;;;;5011580;28;19943;-55
2022/08/22 01:50:54;;;;;;;;;;;;;;;;;;5004272;28;20055;-56
2022/08/22 01:53:21;;;;;;;;;;;;;;;;;;5010359;28;19913;-57
2022/08/22 01:55:46;;;;;;;;;;;;;;;;;;5024505;28;19928;-56
2022/08/22 01:58:11;;;;;;;;;;;;;;;;;;5004984;28;20004;-57
2022/08/22 02:00:37;;;;;;;;;;;;;;;;;;5012906;28;19952;-59
2022/08/22 02:03:02;;;;;;;;;;;;;;;;;;5005378;28;19924;-55
2022/08/22 02:05:27;;;;;;;;;;;;;;;;;;5007353;28;19963;-59
2022/08/22 02:07:53;;;;;;;;;;;;;;;;;;5010885;28;20028;-54
2022/08/22 02:10:18;;;;;;;;;;;;;;;;;;5004813;28;20028;-54
2022/08/22 02:12:43;;;;;;;;;;;;;;;;;;5011261;28;19921;-53
2022/08/22 02:15:09;;;;;;;;;;;;;;;;;;5005419;28;19935;-55
2022/08/22 02:17:35;;;;;;;;;;;;;;;;;;5022304;28;19975;-58
2022/08/22 02:20:00;;;;;;;;;;;;;;;;;;5010309;28;19963;-54
2022/08/22 02:22:25;;;;;;;;;;;;;;;;;;5007602;28;19991;-56
2022/08/22 02:24:50;;;;;;;;;;;;;;;;;;5010273;28;19927;-61
2022/08/22 02:27:16;;;;;;;;;;;;;;;;;;5021664;28;19918;-57
2022/08/22 02:29:41;;;;;;;;;;;;;;;;;;5003985;28;19945;-59
2022/08/22 02:32:06;;;;;;;;;;;;;;;;;;5010602;28;19921;-57
2022/08/22 02:34:32;;;;;;;;;;;;;;;;;;5003374;28;20366;-54
2022/08/22 02:36:57;;;;;;;;;;;;;;;;;;5010743;28;19929;-55
2022/08/22 02:39:22;;;;;;;;;;;;;;;;;;5003632;28;20430;-56
2022/08/22 02:41:47;;;;;;;;;;;;;;;;;;5005788;28;20474;-59
2022/08/22 02:44:12;;;;;;;;;;;;;;;;;;5010482;28;19998;-55
2022/08/22 02:46:38;;;;;;;;;;;;;;;;;;5006013;28;20374;-54
2022/08/22 02:49:03;;;;;;;;;;;;;;;;;;5012869;28;20020;-54
2022/08/22 02:51:29;;;;;;;;;;;;;;;;;;5005259;28;19917;-56
2022/08/22 02:53:54;;;;;;;;;;;;;;;;;;5006460;28;19925;-54
2022/08/22 02:56:19;;;;;;;;;;;;;;;;;;5009869;28;19972;-54
2022/08/22 02:58:45;;;;;;;;;;;;;;;;;;5002838;28;19943;-57
2022/08/22 03:01:10;;;;;;;;;;;;;;;;;;5009937;28;20044;-55
2022/08/22 03:03:35;;;;;;;;;;;;;;;;;;5003226;28;19924;-57
2022/08/22 03:06:00;;;;;;;;;;;;;;;;;;5005465;28;19925;-56
2022/08/22 03:08:26;;;;;;;;;;;;;;;;;;5025524;28;20453;-56
2022/08/22 03:10:51;;;;;;;;;;;;;;;;;;5007423;28;19917;-56
2022/08/22 03:13:16;;;;;;;;;;;;;;;;;;5010992;28;20440;-57
2022/08/22 03:15:41;;;;;;;;;;;;;;;;;;5004447;28;20277;-56
2022/08/22 03:18:07;;;;;;;;;;;;;;;;;;5007943;28;19932;-56
2022/08/22 03:20:32;;;;;;;;;;;;;;;;;;5009945;28;19917;-55
2022/08/22 03:22:58;;;;;;;;;;;;;;;;;;5006483;28;19925;-57
2022/08/22 03:25:23;;;;;;;;;;;;;;;;;;5010688;28;19917;-57
2022/08/22 03:27:49;;;;;;;;;;;;;;;;;;5003389;28;20014;-56
2022/08/22 03:30:14;;;;;;;;;;;;;;;;;;5005141;28;20000;-53
2022/08/22 03:32:39;;;;;;;;;;;;;;;;;;5007725;28;19936;-56
2022/08/22 03:35:04;;;;;;;;;;;;;;;;;;5004852;28;19918;-56
2022/08/22 03:37:30;;;;;;;;;;;;;;;;;;5008821;28;19967;-57
2022/08/22 03:39:55;;;;;;;;;;;;;;;;;;5006027;28;19917;-55
2022/08/22 03:42:21;;;;;;;;;;;;;;;;;;5004424;28;19922;-53
2022/08/22 03:44:46;;;;;;;;;;;;;;;;;;5009559;28;19917;-56
2022/08/22 03:47:11;;;;;;;;;;;;;;;;;;5007904;28;19917;-53
2022/08/22 03:49:36;;;;;;;;;;;;;;;;;;5007929;28;19924;-55
2022/08/22 03:52:01;;;;;;;;;;;;;;;;;;5004125;28;19921;-55
2022/08/22 03:54:27;;;;;;;;;;;;;;;;;;5005872;28;19984;-56
2022/08/22 03:56:52;;;;;;;;;;;;;;;;;;5009493;28;19917;-56
2022/08/22 03:59:18;;;;;;;;;;;;;;;;;;5005283;28;20386;-57
2022/08/22 04:01:43;;;;;;;;;;;;;;;;;;5025722;28;19952;-56
2022/08/22 04:04:08;;;;;;;;;;;;;;;;;;5004047;28;19917;-55
2022/08/22 04:06:34;;;;;;;;;;;;;;;;;;5005760;28;19921;-56
2022/08/22 04:08:59;;;;;;;;;;;;;;;;;;5023118;28;19957;-58
2022/08/22 04:11:26;;;;;;;;;;;;;;;;;;5005116;28;19924;-53
2022/08/22 04:13:52;;;;;;;;;;;;;;;;;;5010034;28;19944;-53
2022/08/22 04:16:17;;;;;;;;;;;;;;;;;;5005731;28;19921;-54
2022/08/22 04:18:42;;;;;;;;;;;;;;;;;;5023778;28;19922;-56
2022/08/22 04:21:07;;;;;;;;;;;;;;;;;;5010847;28;19973;-52
2022/08/22 04:23:32;;;;;;;;;;;;;;;;;;5008984;28;20354;-55
2022/08/22 04:25:58;;;;;;;;;;;;;;;;;;5013628;28;20958;-53
2022/08/22 04:28:23;;;;;;;;;;;;;;;;;;5008622;28;19917;-55
2022/08/22 04:30:48;;;;;;;;;;;;;;;;;;5007392;28;19924;-57
2022/08/22 04:33:14;;;;;;;;;;;;;;;;;;5011421;28;19940;-57
2022/08/22 04:35:39;;;;;;;;;;;;;;;;;;5008477;28;19913;-59
2022/08/22 04:38:04;;;;;;;;;;;;;;;;;;5013783;28;19969;-55
2022/08/22 04:40:29;;;;;;;;;;;;;;;;;;5008894;28;19917;-55
2022/08/22 04:42:54;;;;;;;;;;;;;;;;;;5008027;28;19921;-56
2022/08/22 04:45:20;;;;;;;;;;;;;;;;;;5014531;28;19917;-57
2022/08/22 04:47:45;;;;;;;;;;;;;;;;;;5006724;28;19913;-55
2022/08/22 04:50:10;;;;;;;;;;;;;;;;;;5013687;28;19921;-56
2022/08/22 04:52:35;;;;;;;;;;;;;;;;;;5008600;28;20262;-57
2022/08/22 04:55:00;;;;;;;;;;;;;;;;;;5006339;28;20036;-59
2022/08/22 04:57:26;;;;;;;;;;;;;;;;;;5014278;28;20015;-57
2022/08/22 04:59:51;;;;;;;;;;;;;;;;;;5006734;28;19922;-56
2022/08/22 05:02:16;;;;;;;;;;;;;;;;;;5012422;28;19917;-57
2022/08/22 05:04:41;;;;;;;;;;;;;;;;;;5007596;28;19990;-56
2022/08/22 05:07:06;;;;;;;;;;;;;;;;;;5006861;28;19921;-55
2022/08/22 05:09:34;;;;;;;;;;;;;;;;;;5014593;28;19920;-53
2022/08/22 05:11:59;;;;;;;;;;;;;;;;;;5007393;28;19921;-54
2022/08/22 05:14:25;;;;;;;;;;;;;;;;;;5014376;28;19917;-54
2022/08/22 05:16:50;;;;;;;;;;;;;;;;;;5005033;28;19925;-58
2022/08/22 05:19:15;;;;;;;;;;;;;;;;;;5007362;28;19991;-57
2022/08/22 05:21:40;;;;;;;;;;;;;;;;;;5027689;28;20984;-55
2022/08/22 05:24:06;;;;;;;;;;;;;;;;;;5021258;28;19945;-56
2022/08/22 05:26:31;;;;;;;;;;;;;;;;;;5009690;28;19924;-53
2022/08/22 05:28:56;;;;;;;;;;;;;;;;;;5006084;28;19917;-57
2022/08/22 05:31:22;;;;;;;;;;;;;;;;;;5005101;28;19924;-55
2022/08/22 05:33:48;;;;;;;;;;;;;;;;;;5012030;28;20015;-55
2022/08/22 05:36:13;;;;;;;;;;;;;;;;;;5007954;28;20887;-57
2022/08/22 05:38:38;;;;;;;;;;;;;;;;;;5013300;28;20103;-57
2022/08/22 05:41:03;;;;;;;;;;;;;;;;;;5013194;28;20425;-55
2022/08/22 05:43:29;;;;;;;;;;;;;;;;;;5011533;28;19917;-57
2022/08/22 05:45:54;;;;;;;;;;;;;;;;;;5010808;28;19917;-56
2022/08/22 05:48:19;;;;;;;;;;;;;;;;;;5012285;28;19964;-55
2022/08/22 05:50:44;;;;;;;;;;;;;;;;;;5013131;28;19990;-53
2022/08/22 05:53:09;;;;;;;;;;;;;;;;;;5011747;28;20551;-57
2022/08/22 05:55:35;;;;;;;;;;;;;;;;;;5014105;28;19917;-57
2022/08/22 05:58:00;;;;;;;;;;;;;;;;;;5012590;28;20345;-56
2022/08/22 06:00:26;;;;;;;;;;;;;;;;;;5012905;28;20453;-54
2022/08/22 06:02:51;;;;;;;;;;;;;;;;;;5010093;28;19928;-58
2022/08/22 06:05:16;;;;;;;;;;;;;;;;;;4985992;28;19925;-57
2022/08/22 06:07:41;;;;;;;;;;;;;;;;;;5010877;28;20043;-58
2022/08/22 06:10:07;;;;;;;;;;;;;;;;;;5013659;28;19924;-56
2022/08/22 06:12:32;;;;;;;;;;;;;;;;;;5012436;28;19917;-55
2022/08/22 06:14:58;;;;;;;;;;;;;;;;;;5011626;28;19924;-57
2022/08/22 06:17:23;;;;;;;;;;;;;;;;;;5009748;28;19972;-55
2022/08/22 06:19:48;;;;;;;;;;;;;;;;;;5002681;28;19921;-56
2022/08/22 06:22:13;;;;;;;;;;;;;;;;;;5012182;28;19960;-57
2022/08/22 06:24:38;;;;;;;;;;;;;;;;;;5011415;28;19927;-55
2022/08/22 06:27:04;;;;;;;;;;;;;;;;;;5009875;28;19917;-58
2022/08/22 06:29:29;;;;;;;;;;;;;;;;;;5010321;28;19917;-55
2022/08/22 06:31:54;;;;;;;;;;;;;;;;;;5009869;28;19956;-55
2022/08/22 06:34:21;;;;;;;;;;;;;;;;;;5005696;28;19955;-57
2022/08/22 06:36:47;;;;;;;;;;;;;;;;;;5025030;28;19936;-58
2022/08/22 06:39:12;;;;;;;;;;;;;;;;;;5010814;28;19917;-59
2022/08/22 06:41:37;;;;;;;;;;;;;;;;;;5009785;28;19932;-57
2022/08/22 06:44:02;;;;;;;;;;;;;;;;;;5011266;28;19917;-51
2022/08/22 06:46:27;;;;;;;;;;;;;;;;;;5010091;28;19917;-54
2022/08/22 06:48:53;;;;;;;;;;;;;;;;;;5010461;28;19913;-58
2022/08/22 08:10:44;;;;;;;;;;;;;;;;;;5007347;28;2007084;-59
2022/08/22 08:13:09;;;;;;;;;;;;;;;;;;5117326;28;19927;-58
2022/08/22 08:15:34;;;;;;;;;;;;;;;;;;5120024;28;19916;-59
2022/08/22 08:18:00;;;;;;;;;;;;;;;;;;5119812;28;20788;-58
2022/08/22 08:20:25;;;;;;;;;;;;;;;;;;5118280;27;20288;-58
2022/08/22 08:22:52;;;;;;;;;;;;;;;;;;5113115;27;20550;-57
2022/08/22 08:25:18;;;;;;;;;;;;;;;;;;5120070;28;19920;-59
2022/08/22 08:30:26;;;;;;;;;;;;;;;;;;5104523;27;19958;-59
2022/08/22 08:32:55;;;;;;;;;;;;;;;;;;5119230;28;20662;-58
2022/08/22 08:35:21;;;;;;;;;;;;;;;;;;5117986;28;19916;-59
2022/08/22 08:37:47;;;;;;;;;;;;;;;;;;5100982;28;19923;-58
2022/08/22 08:40:12;;;;;;;;;;;;;;;;;;5119148;28;19916;-58
2022/08/22 08:43:25;;;;;;;;;;;;;;;;;;5119657;28;19924;-60
2022/08/22 08:45:22;;;;;;;;;;;;;;;;;;5118647;28;19916;-59
2022/08/22 08:47:48;;;;;;;;;;;;;;;;;;5103747;28;19915;-59
2022/08/22 08:50:13;;;;;;;;;;;;;;;;;;5118003;28;20230;-59
2022/08/22 08:52:39;;;;;;;;;;;;;;;;;;5118833;28;19916;-60
2022/08/22 08:55:04;;;;;;;;;;;;;;;;;;5099746;28;20322;-59
2022/08/22 08:57:29;;;;;;;;;;;;;;;;;;5119269;28;20068;-59
2022/08/22 08:59:54;;;;;;;;;;;;;;;;;;5118256;28;20655;-58
2022/08/22 09:02:19;;;;;;;;;;;;;;;;;;5116661;28;20606;-58
2022/08/22 09:04:45;;;;;;;;;;;;;;;;;;5118367;28;20303;-58
2022/08/22 09:07:10;;;;;;;;;;;;;;;;;;5100365;28;19916;-59
2022/08/22 09:09:36;;;;;;;;;;;;;;;;;;5113736;28;20414;-60
2022/08/22 09:12:01;;;;;;;;;;;;;;;;;;5107776;28;19920;-59
2022/08/22 09:14:26;;;;;;;;;;;;;;;;;;5109903;27;19961;-58
2022/08/22 09:16:51;;;;;;;;;;;;;;;;;;5105184;28;19922;-58
2022/08/22 09:19:17;;;;;;;;;;;;;;;;;;5104870;28;20228;-58
2022/08/22 09:21:42;;;;;;;;;;;;;;;;;;5104242;28;19916;-58
2022/08/22 09:24:07;;;;;;;;;;;;;;;;;;5104998;28;19920;-58
2022/08/22 09:26:32;;;;;;;;;;;;;;;;;;5104971;28;19945;-59
2022/08/22 09:28:58;;;;;;;;;;;;;;;;;;5105496;27;20291;-60
2022/08/22 09:31:23;;;;;;;;;;;;;;;;;;5102901;27;20036;-59
2022/08/22 09:33:49;;;;;;;;;;;;;;;;;;5104479;28;20322;-59
2022/08/22 09:36:14;;;;;;;;;;;;;;;;;;5104374;28;19920;-59
2022/08/22 09:38:39;;;;;;;;;;;;;;;;;;5103192;28;19916;-59
2022/08/22 09:41:04;;;;;;;;;;;;;;;;;;5104123;28;20761;-59
2022/08/22 09:43:29;;;;;;;;;;;;;;;;;;5103391;28;20038;-59
2022/08/22 09:45:56;;;;;;;;;;;;;;;;;;5103860;28;19922;-59
2022/08/22 09:48:21;;;;;;;;;;;;;;;;;;5104628;28;20006;-59
2022/08/22 09:50:46;;;;;;;;;;;;;;;;;;5102969;28;19916;-58
2022/08/22 09:53:11;;;;;;;;;;;;;;;;;;5104267;28;19912;-59
2022/08/22 09:55:37;;;;;;;;;;;;;;;;;;5103662;28;19916;-59
2022/08/22 09:58:03;;;;;;;;;;;;;;;;;;5085478;27;19916;-59
2022/08/22 10:00:28;;;;;;;;;;;;;;;;;;5102653;28;19926;-59
2022/08/22 10:02:53;;;;;;;;;;;;;;;;;;5082697;28;20060;-59
2022/08/22 10:05:18;;;;;;;;;;;;;;;;;;5103677;28;19922;-59
2022/08/22 10:07:44;;;;;;;;;;;;;;;;;;5103966;28;19926;-58
2022/08/22 10:10:09;;;;;;;;;;;;;;;;;;5096260;28;19966;-58
2022/08/22 10:12:34;;;;;;;;;;;;;;;;;;5083137;28;19924;-58
2022/08/22 10:14:59;;;;;;;;;;;;;;;;;;5082974;28;19916;-58
2022/08/22 10:17:24;;;;;;;;;;;;;;;;;;5082916;28;19942;-59
2022/08/22 10:19:50;;;;;;;;;;;;;;;;;;5081682;28;20992;-58
2022/08/22 10:22:15;;;;;;;;;;;;;;;;;;5082471;28;19935;-58
2022/08/22 10:24:41;;;;;;;;;;;;;;;;;;5081990;28;19916;-58
2022/08/22 10:27:06;;;;;;;;;;;;;;;;;;5098082;28;20686;-58
2022/08/22 10:29:33;;;;;;;;;;;;;;;;;;5081316;28;20422;-59
2022/08/22 10:31:58;;;;;;;;;;;;;;;;;;5081819;28;19912;-58
2022/08/22 10:34:24;;;;;;;;;;;;;;;;;;5080786;28;20353;-58
2022/08/22 10:36:49;;;;;;;;;;;;;;;;;;5082117;28;19916;-60
2022/08/22 10:39:15;;;;;;;;;;;;;;;;;;5082858;28;20426;-58
2022/08/22 10:41:40;;;;;;;;;;;;;;;;;;5081413;28;19916;-58
2022/08/22 10:44:05;;;;;;;;;;;;;;;;;;5083141;28;19951;-59
2022/08/22 10:46:30;;;;;;;;;;;;;;;;;;5083628;28;19916;-59
2022/08/22 10:48:56;;;;;;;;;;;;;;;;;;5083213;28;19916;-59
2022/08/22 10:51:21;;;;;;;;;;;;;;;;;;5083155;28;20331;-58
2022/08/22 10:53:47;;;;;;;;;;;;;;;;;;5063452;28;20060;-58
2022/08/22 10:56:12;;;;;;;;;;;;;;;;;;5082691;28;20350;-58
2022/08/22 10:58:37;;;;;;;;;;;;;;;;;;5082996;28;19916;-59
2022/08/22 11:01:02;;;;;;;;;;;;;;;;;;5082530;28;20666;-59
2022/08/22 11:03:28;;;;;;;;;;;;;;;;;;5081319;28;19931;-59
2022/08/22 11:05:53;;;;;;;;;;;;;;;;;;5083873;28;20574;-59
2022/08/22 11:08:18;;;;;;;;;;;;;;;;;;5082441;28;19912;-60
2022/08/22 11:10:43;;;;;;;;;;;;;;;;;;5103892;27;20066;-59
2022/08/22 11:13:09;;;;;;;;;;;;;;;;;;5101920;28;19924;-59
2022/08/22 11:15:34;;;;;;;;;;;;;;;;;;5103152;28;19919;-60
2022/08/22 11:18:00;;;;;;;;;;;;;;;;;;5101939;28;19961;-59
2022/08/22 11:20:25;;;;;;;;;;;;;;;;;;5100502;28;19919;-59
2022/08/22 11:22:51;;;;;;;;;;;;;;;;;;5100259;28;19924;-59
2022/08/22 11:25:16;;;;;;;;;;;;;;;;;;5101690;28;19923;-58
2022/08/22 11:27:41;;;;;;;;;;;;;;;;;;5103026;28;19916;-58
2022/08/22 11:30:06;;;;;;;;;;;;;;;;;;5100202;28;19923;-60
2022/08/22 11:32:31;;;;;;;;;;;;;;;;;;5100260;28;19916;-59
2022/08/22 11:34:57;;;;;;;;;;;;;;;;;;5100774;28;19962;-59
2022/08/22 11:37:22;;;;;;;;;;;;;;;;;;5102189;28;19915;-60
2022/08/22 11:39:47;;;;;;;;;;;;;;;;;;5102536;28;20538;-59
2022/08/22 11:42:12;;;;;;;;;;;;;;;;;;5101180;28;19969;-60
2022/08/22 11:44:38;;;;;;;;;;;;;;;;;;5102112;28;19968;-59
2022/08/22 11:47:03;;;;;;;;;;;;;;;;;;5101684;28;19916;-60
2022/08/22 11:49:28;;;;;;;;;;;;;;;;;;5102135;28;19919;-59
2022/08/22 11:51:56;;;;;;;;;;;;;;;;;;5101214;28;20022;-60
2022/08/22 11:54:22;;;;;;;;;;;;;;;;;;5101315;28;20632;-60
2022/08/22 11:56:48;;;;;;;;;;;;;;;;;;5102359;28;19916;-61
2022/08/22 11:59:14;;;;;;;;;;;;;;;;;;5101495;28;19916;-59
2022/08/22 12:01:39;;;;;;;;;;;;;;;;;;5100352;28;19976;-60
2022/08/22 12:04:04;;;;;;;;;;;;;;;;;;5101831;28;20010;-60
2022/08/22 12:06:29;;;;;;;;;;;;;;;;;;5102036;28;19916;-60
2022/08/22 12:08:54;;;;;;;;;;;;;;;;;;5098986;28;19947;-60
2022/08/22 12:11:19;;;;;;;;;;;;;;;;;;5100378;28;20279;-60
2022/08/22 12:13:45;;;;;;;;;;;;;;;;;;5102306;28;19916;-61
2022/08/22 12:16:13;;;;;;;;;;;;;;;;;;5098895;28;20026;-60
2022/08/22 12:18:38;;;;;;;;;;;;;;;;;;5102802;28;20092;-60
2022/08/22 12:21:03;;;;;;;;;;;;;;;;;;5099237;28;20538;-60
2022/08/22 12:23:29;;;;;;;;;;;;;;;;;;5101632;28;20676;-60
2022/08/22 12:25:54;;;;;;;;;;;;;;;;;;5101044;28;19919;-60
2022/08/22 12:28:19;;;;;;;;;;;;;;;;;;5098844;28;19922;-61
2022/08/22 12:30:44;;;;;;;;;;;;;;;;;;5087012;28;20002;-60
2022/08/22 12:33:09;;;;;;;;;;;;;;;;;;5101613;28;19916;-60
2022/08/22 12:35:35;;;;;;;;;;;;;;;;;;5104120;28;19927;-60
2022/08/22 12:38:00;;;;;;;;;;;;;;;;;;5103638;28;19915;-59
2022/08/22 12:40:26;;;;;;;;;;;;;;;;;;5101289;28;19912;-59
2022/08/22 12:42:51;;;;;;;;;;;;;;;;;;5102884;28;20513;-60
2022/08/22 12:45:16;;;;;;;;;;;;;;;;;;5103351;28;20425;-60
2022/08/22 12:47:41;;;;;;;;;;;;;;;;;;5103706;28;20425;-60
2022/08/22 12:50:06;;;;;;;;;;;;;;;;;;5105316;28;19915;-59
2022/08/22 12:52:32;;;;;;;;;;;;;;;;;;5106185;28;19959;-60
2022/08/22 12:54:57;;;;;;;;;;;;;;;;;;5107464;28;19968;-60
2022/08/22 12:57:22;;;;;;;;;;;;;;;;;;5107794;28;19927;-60
2022/08/22 12:59:47;;;;;;;;;;;;;;;;;;5108040;28;19958;-60
2022/08/22 13:02:12;;;;;;;;;;;;;;;;;;5106772;28;19948;-60
2022/08/22 13:04:38;;;;;;;;;;;;;;;;;;5104584;28;19924;-61
2022/08/22 13:07:03;;;;;;;;;;;;;;;;;;5105897;28;19980;-60
2022/08/22 13:09:29;;;;;;;;;;;;;;;;;;5105251;28;19919;-59
2022/08/22 13:11:54;;;;;;;;;;;;;;;;;;5106544;28;19958;-59
2022/08/22 13:14:19;;;;;;;;;;;;;;;;;;5105783;28;19919;-60
2022/08/22 13:16:45;;;;;;;;;;;;;;;;;;5105319;28;20296;-59
2022/08/22 13:19:10;;;;;;;;;;;;;;;;;;5105265;28;20361;-60
2022/08/22 13:21:35;;;;;;;;;;;;;;;;;;5106381;27;20014;-61
2022/08/22 13:24:00;;;;;;;;;;;;;;;;;;5106235;28;19930;-60
2022/08/22 13:26:25;;;;;;;;;;;;;;;;;;5106394;28;19916;-62
2022/08/22 13:28:53;;;;;;;;;;;;;;;;;;5106674;28;20321;-61
2022/08/22 13:31:18;;;;;;;;;;;;;;;;;;5105226;28;19915;-61
2022/08/22 13:33:46;;;;;;;;;;;;;;;;;;5105919;28;19912;-60
2022/08/22 13:36:11;;;;;;;;;;;;;;;;;;5104409;27;19943;-60
2022/08/22 13:38:40;;;;;;;;;;;;;;;;;;5105158;27;19915;-61
2022/08/22 13:41:05;;;;;;;;;;;;;;;;;;5104056;28;20295;-60
2022/08/22 13:43:30;;;;;;;;;;;;;;;;;;5104075;27;20363;-60
2022/08/22 13:45:55;;;;;;;;;;;;;;;;;;5105050;28;19919;-60
2022/08/22 13:48:21;;;;;;;;;;;;;;;;;;5107410;28;20007;-60
2022/08/22 13:50:46;;;;;;;;;;;;;;;;;;5104654;28;19916;-60
2022/08/22 13:53:11;;;;;;;;;;;;;;;;;;5106756;28;19923;-60
2022/08/22 13:55:36;;;;;;;;;;;;;;;;;;5105590;28;19938;-60
2022/08/22 13:58:01;;;;;;;;;;;;;;;;;;5106117;28;20260;-60
2022/08/22 14:00:27;;;;;;;;;;;;;;;;;;5105545;28;19923;-59
2022/08/22 14:02:52;;;;;;;;;;;;;;;;;;5104786;28;19964;-60
2022/08/22 14:05:17;;;;;;;;;;;;;;;;;;5106707;27;20283;-60
2022/08/22 14:07:43;;;;;;;;;;;;;;;;;;5106243;28;20158;-60
2022/08/22 14:10:08;;;;;;;;;;;;;;;;;;5104730;28;19926;-60
2022/08/22 14:12:33;;;;;;;;;;;;;;;;;;5105282;28;20332;-60
2022/08/22 14:14:58;;;;;;;;;;;;;;;;;;5098265;27;20448;-60
2022/08/22 14:17:23;;;;;;;;;;;;;;;;;;5103583;28;19986;-60
2022/08/22 14:19:49;;;;;;;;;;;;;;;;;;5101588;28;20311;-60
2022/08/22 14:22:18;;;;;;;;;;;;;;;;;;5102317;28;19923;-60
2022/08/22 14:24:43;;;;;;;;;;;;;;;;;;5103948;28;19919;-60
2022/08/22 14:27:08;;;;;;;;;;;;;;;;;;5103292;27;20619;-61
2022/08/22 14:29:33;;;;;;;;;;;;;;;;;;5105147;28;20504;-61
2022/08/22 14:31:58;;;;;;;;;;;;;;;;;;5104681;28;19916;-61
2022/08/22 14:34:23;;;;;;;;;;;;;;;;;;5105353;28;19954;-60
2022/08/22 14:36:49;;;;;;;;;;;;;;;;;;5105224;28;19923;-60
2022/08/22 14:39:15;;;;;;;;;;;;;;;;;;5105168;28;19954;-59
2022/08/22 14:41:40;;;;;;;;;;;;;;;;;;5105173;28;20018;-60
2022/08/22 14:44:05;;;;;;;;;;;;;;;;;;5104151;28;19996;-61
2022/08/22 14:46:30;;;;;;;;;;;;;;;;;;5095477;27;19915;-61
2022/08/22 14:48:56;;;;;;;;;;;;;;;;;;5097218;28;19915;-61
2022/08/22 14:51:21;;;;;;;;;;;;;;;;;;5100414;28;20439;-61
2022/08/22 14:53:47;;;;;;;;;;;;;;;;;;5091426;28;19920;-61
2022/08/22 14:56:12;;;;;;;;;;;;;;;;;;5093316;28;19922;-60
2022/08/22 14:58:37;;;;;;;;;;;;;;;;;;5099805;28;19916;-61
2022/08/22 15:01:02;;;;;;;;;;;;;;;;;;5101851;28;19923;-60
2022/08/22 15:03:28;;;;;;;;;;;;;;;;;;5097554;28;19943;-61
2022/08/22 15:05:53;;;;;;;;;;;;;;;;;;5097130;28;20415;-60
2022/08/22 15:08:18;;;;;;;;;;;;;;;;;;5096403;27;19922;-61
2022/08/22 15:10:43;;;;;;;;;;;;;;;;;;5110005;27;20004;-60
2022/08/22 15:13:08;;;;;;;;;;;;;;;;;;5098203;28;21815;-60
2022/08/22 15:15:34;;;;;;;;;;;;;;;;;;5093880;28;20527;-61
2022/08/22 15:17:59;;;;;;;;;;;;;;;;;;5093297;28;19927;-61
2022/08/22 15:20:24;;;;;;;;;;;;;;;;;;5101391;28;19915;-61
2022/08/22 15:22:50;;;;;;;;;;;;;;;;;;5098240;28;19935;-61
2022/08/22 15:25:15;;;;;;;;;;;;;;;;;;5096026;28;19976;-59
2022/08/22 15:27:40;;;;;;;;;;;;;;;;;;5104543;28;19915;-59
2022/08/22 15:30:06;;;;;;;;;;;;;;;;;;5101800;28;20583;-60
2022/08/22 15:32:31;;;;;;;;;;;;;;;;;;5096510;28;20559;-59
2022/08/22 15:34:56;;;;;;;;;;;;;;;;;;5103568;28;19919;-60
2022/08/22 15:37:21;;;;;;;;;;;;;;;;;;5102905;28;19972;-60
2022/08/22 15:39:46;;;;;;;;;;;;;;;;;;5104745;28;20340;-59
2022/08/22 15:42:12;;;;;;;;;;;;;;;;;;5104039;28;19916;-61
2022/08/22 15:44:37;;;;;;;;;;;;;;;;;;5101359;28;20038;-59
2022/08/22 15:47:02;;;;;;;;;;;;;;;;;;5104365;28;20375;-59
2022/08/22 15:49:28;;;;;;;;;;;;;;;;;;5103381;28;19915;-60
2022/08/22 15:51:53;;;;;;;;;;;;;;;;;;5104394;28;19923;-60
2022/08/22 15:54:18;;;;;;;;;;;;;;;;;;5103749;28;19916;-60
2022/08/22 15:56:43;;;;;;;;;;;;;;;;;;5104316;28;19915;-60
2022/08/22 15:59:11;;;;;;;;;;;;;;;;;;5101282;28;19915;-60
2022/08/22 16:01:36;;;;;;;;;;;;;;;;;;5101993;28;20014;-60
2022/08/22 16:04:01;;;;;;;;;;;;;;;;;;5102098;28;20027;-60
2022/08/22 16:06:27;;;;;;;;;;;;;;;;;;5102164;28;19935;-60
2022/08/22 16:08:52;;;;;;;;;;;;;;;;;;5102326;28;20364;-60
2022/08/22 16:11:18;;;;;;;;;;;;;;;;;;5101204;28;20367;-60
2022/08/22 16:13:43;;;;;;;;;;;;;;;;;;5101999;28;20257;-60
2022/08/22 16:16:08;;;;;;;;;;;;;;;;;;5101796;28;20046;-60
2022/08/22 16:18:38;;;;;;;;;;;;;;;;;;5102666;28;19912;-60
2022/08/22 16:21:03;;;;;;;;;;;;;;;;;;5101077;28;19939;-60
2022/08/22 16:23:28;;;;;;;;;;;;;;;;;;5101728;28;20318;-60
2022/08/22 16:25:53;;;;;;;;;;;;;;;;;;5100900;27;19976;-60
2022/08/22 16:28:18;;;;;;;;;;;;;;;;;;5102914;27;19994;-60
2022/08/22 16:30:44;;;;;;;;;;;;;;;;;;5103665;28;20219;-59
2022/08/22 16:33:09;;;;;;;;;;;;;;;;;;5104601;27;19915;-60
2022/08/22 16:35:34;;;;;;;;;;;;;;;;;;5104380;28;19984;-58
2022/08/22 16:37:59;;;;;;;;;;;;;;;;;;5103535;28;19912;-60
2022/08/22 16:40:25;;;;;;;;;;;;;;;;;;5103634;28;19931;-59
2022/08/22 16:42:50;;;;;;;;;;;;;;;;;;5102387;27;19945;-59
2022/08/22 16:45:15;;;;;;;;;;;;;;;;;;5117722;27;19927;-59
2022/08/22 16:47:41;;;;;;;;;;;;;;;;;;5101899;28;20041;-60
2022/08/22 16:50:06;;;;;;;;;;;;;;;;;;5103391;28;19999;-59
2022/08/22 16:52:31;;;;;;;;;;;;;;;;;;5098022;28;19922;-59
2022/08/22 16:54:59;;;;;;;;;;;;;;;;;;5102220;28;19928;-59
2022/08/22 16:57:25;;;;;;;;;;;;;;;;;;5104501;28;19915;-59
2022/08/22 16:59:50;;;;;;;;;;;;;;;;;;5101155;27;20024;-59
2022/08/22 17:02:15;;;;;;;;;;;;;;;;;;5101715;28;19998;-59
2022/08/22 17:04:40;;;;;;;;;;;;;;;;;;5101921;28;19922;-59
2022/08/22 17:07:06;;;;;;;;;;;;;;;;;;5092152;27;19916;-60
2022/08/22 17:09:31;;;;;;;;;;;;;;;;;;5102284;28;19965;-59
2022/08/22 17:11:56;;;;;;;;;;;;;;;;;;5102996;28;20060;-59
2022/08/22 17:14:21;;;;;;;;;;;;;;;;;;5102477;28;19951;-59
2022/08/22 17:16:46;;;;;;;;;;;;;;;;;;5103124;28;19915;-59
2022/08/22 17:19:12;;;;;;;;;;;;;;;;;;5101015;28;20339;-59
2022/08/22 17:21:37;;;;;;;;;;;;;;;;;;5101077;28;20286;-59
2022/08/22 17:24:02;;;;;;;;;;;;;;;;;;5101401;28;19931;-59
2022/08/22 17:26:27;;;;;;;;;;;;;;;;;;5101106;27;19915;-58
2022/08/22 17:28:53;;;;;;;;;;;;;;;;;;5099276;28;19920;-58
2022/08/22 17:31:18;;;;;;;;;;;;;;;;;;5099562;28;19944;-58
2022/08/22 17:33:43;;;;;;;;;;;;;;;;;;5101711;28;19916;-58
2022/08/22 17:36:08;;;;;;;;;;;;;;;;;;5101542;28;20375;-59
2022/08/22 17:38:33;;;;;;;;;;;;;;;;;;5102821;28;19955;-58
2022/08/22 17:40:59;;;;;;;;;;;;;;;;;;5100971;28;20458;-59
2022/08/22 17:43:26;;;;;;;;;;;;;;;;;;5101799;27;19939;-58
2022/08/22 17:45:51;;;;;;;;;;;;;;;;;;5100355;28;19968;-59
2022/08/22 17:48:16;;;;;;;;;;;;;;;;;;5063466;28;19924;-59
2022/08/22 17:50:41;;;;;;;;;;;;;;;;;;5075232;28;20053;-59
2022/08/22 17:53:06;;;;;;;;;;;;;;;;;;5073735;28;20708;-59
2022/08/22 17:55:32;;;;;;;;;;;;;;;;;;5062358;28;19922;-59